The Sea Ranch, CA (95497)

11:20 AM PDT on May 24, 2015 (GMT -0700)
The Sea Ranch | | Change Station
CLOSE
Current Station
Personal Weather Station
Location: The Sea Ranch, CA
Elevation: 359 ft
Nearby Weather Stations

Elev 359 ft 38.71 °N, 123.45 °W | Updated 4 minutes ago

Partly Cloudy
Partly Cloudy
58.5 °F
Feels Like 58.5 °F
N
9.0
Wind Variable Wind from SW
Gusts 9.0 mph

Today
High -- | Low -- °F
--% Chance of Precip.
Yesterday
High -- | Low -- °F
Precip. -- in
5:55 AM 8:26 PM
Waxing Crescent, 41% visible
Pressure 29.94 in
Visibility 10.0 miles
Clouds Clear
Dew Point 52 °F
Humidity 80%
Rainfall 0.00 in
Snow Depth Not available.
UV 9 out of 12
Pollen 6.00 out of 12
Air Quality Not available.
Flu Activity Sporadic
METAR KUKI 241756Z AUTO 00000KT 10SM CLR 23/11 A2995 RMK AO2 SLP137 T02280111 10228 20089 58018

More Conditions Fewer Conditions

Pressure 29.94 in
Visibility 10.0 miles
Clouds Clear
Dew Point 52 °F
Humidity 80%
Rainfall 0.00 in
Snow Depth Not available.
UV 9 out of 12
Pollen 6.00 out of 12
Air Quality Not available.
Flu Activity Sporadic
METAR KUKI 241756Z AUTO 00000KT 10SM CLR 23/11 A2995 RMK AO2 SLP137 T02280111 10228 20089 58018

More Conditions Fewer Conditions

10-Day Weather Forecast

Almanac

Astronomy

May. 24, 2015 Rise Set
Actual Time
Civil Twilight
Nautical Twilight
Astronomical Twilight
Moon
Length of Visible Light
Length of Day
Tomorrow will be .
, % of the Moon is Illuminated

Today's Extremes

State Highs State Lows

Community

WunderPhotos

Upload Photos

1,823,819 photos uploaded!

WunderBlogs® & News

Nearby

Air Quality

  Air Quality AQ Index Pollutant
Not available.

Snow Depth

Station Depth Elevation

Earthquake Activity

City Distance Mag. Time & Date
Minimum magnitude displayed is 2.5.

Coastal Water Temperatures

Place Temperature

Stations

Nearby Weather Stations

Station Location Temp. Windchill Dew Point Humidity Wind Precip. Elev Updated Type